createdAt,value
2022-08-09T00:00:00.950Z,2.42
2022-08-09T00:02:37.182Z,2.75
2022-08-09T00:06:19.834Z,2.53
2022-08-09T00:07:59.947Z,2.47
2022-08-09T00:10:28.233Z,2.63
2022-08-09T00:12:55.123Z,2.95
2022-08-09T00:15:26.364Z,2.47
2022-08-09T00:18:05.675Z,2.60
2022-08-09T00:20:42.354Z,2.20
2022-08-09T00:23:56.599Z,2.47
2022-08-09T00:26:05.259Z,2.30
2022-08-09T00:28:34.464Z,2.47
2022-08-09T00:33:50.905Z,2.75
2022-08-09T00:36:20.306Z,2.70
2022-08-09T00:38:50.960Z,2.40
2022-08-09T00:44:13.946Z,2.50
2022-08-09T00:44:15.219Z,2.50
2022-08-09T00:46:56.854Z,2.75
2022-08-09T00:49:30.297Z,3.05
2022-08-09T00:52:05.004Z,2.28
2022-08-09T00:54:35.978Z,2.45
2022-08-09T00:57:10.143Z,2.42
2022-08-09T00:59:41.230Z,2.92
2022-08-09T01:02:20.221Z,2.53
2022-08-09T01:04:53.433Z,2.40
2022-08-09T01:07:38.126Z,3.22
2022-08-09T01:10:25.849Z,2.50
2022-08-09T01:13:02.178Z,2.70
2022-08-09T01:15:40.828Z,2.80
2022-08-09T01:18:14.208Z,2.92
2022-08-09T01:20:48.020Z,2.15
2022-08-09T01:24:01.841Z,3.10
2022-08-09T01:26:53.589Z,2.58
2022-08-09T01:29:29.095Z,3.00
2022-08-09T01:32:31.113Z,2.70
2022-08-09T01:35:06.990Z,2.97
2022-08-09T01:38:08.375Z,2.60
2022-08-09T01:40:35.640Z,2.72
2022-08-09T01:45:34.392Z,3.13
2022-08-09T01:48:12.765Z,3.03
2022-08-09T01:50:48.047Z,3.10
2022-08-09T01:53:19.147Z,3.13
2022-08-09T01:55:48.448Z,3.00
2022-08-09T01:58:17.443Z,3.15
2022-08-09T02:00:46.293Z,3.03
2022-08-09T02:03:19.503Z,3.10
2022-08-09T02:06:03.528Z,3.55
2022-08-09T02:08:56.831Z,3.35
2022-08-09T02:11:24.862Z,3.38
2022-08-09T02:14:15.005Z,3.67
2022-08-09T02:17:14.513Z,3.30
2022-08-09T02:19:43.738Z,3.63
2022-08-09T02:22:16.948Z,3.78
2022-08-09T02:24:51.838Z,3.58
2022-08-09T02:27:21.197Z,3.55
2022-08-09T02:30:12.250Z,4.13
2022-08-09T02:32:46.119Z,3.80
2022-08-09T02:35:23.084Z,3.70
2022-08-09T02:38:10.024Z,3.65
2022-08-09T02:40:38.494Z,3.50
2022-08-09T02:43:08.772Z,3.58
2022-08-09T02:45:42.756Z,3.83
2022-08-09T02:48:30.733Z,3.63
2022-08-09T02:51:01.711Z,3.80
2022-08-09T02:53:34.639Z,3.72
2022-08-09T02:56:04.007Z,3.92
2022-08-09T02:58:37.493Z,4.13
2022-08-09T03:01:08.173Z,4.03
2022-08-09T03:04:12.305Z,3.80
2022-08-09T03:06:27.677Z,3.08
2022-08-09T03:08:56.109Z,3.60
2022-08-09T03:12:04.141Z,3.17
2022-08-09T03:14:12.800Z,3.28
2022-08-09T03:16:47.583Z,3.75
2022-08-09T03:19:52.282Z,3.83
2022-08-09T03:22:12.513Z,4.22
2022-08-09T03:25:16.159Z,3.95
2022-08-09T03:30:13.480Z,4.03
2022-08-09T03:32:43.145Z,4.22
2022-08-09T03:35:24.195Z,4.15
2022-08-09T03:37:56.465Z,3.67
2022-08-09T03:40:25.806Z,3.92
2022-08-09T03:42:58.199Z,3.50
2022-08-09T03:46:05.222Z,3.90
2022-08-09T03:48:18.773Z,4.10
2022-08-09T03:50:46.705Z,3.88
2022-08-09T03:53:16.889Z,3.53
2022-08-09T03:55:48.311Z,4.55
2022-08-09T03:58:16.881Z,4.38
2022-08-09T04:00:45.271Z,3.90
2022-08-09T04:03:15.300Z,4.88
2022-08-09T04:05:52.152Z,3.55
2022-08-09T04:08:19.112Z,4.43
2022-08-09T04:10:56.157Z,4.40
2022-08-09T04:14:37.484Z,4.47
2022-08-09T04:16:20.030Z,4.15
2022-08-09T04:18:51.287Z,4.57
2022-08-09T04:21:18.363Z,4.72
2022-08-09T04:23:54.201Z,4.63
2022-08-09T04:26:24.791Z,4.70
2022-08-09T04:29:07.858Z,5.03
2022-08-09T04:31:47.188Z,5.20
2022-08-09T04:34:19.058Z,5.00
2022-08-09T04:36:57.700Z,4.43
2022-08-09T04:39:25.534Z,5.07
2022-08-09T04:41:59.805Z,4.88
2022-08-09T04:44:29.424Z,5.20
2022-08-09T04:47:05.783Z,4.38
2022-08-09T04:49:53.381Z,4.60
2022-08-09T04:52:27.535Z,4.88
2022-08-09T04:54:56.037Z,5.78
2022-08-09T04:57:25.084Z,4.43
2022-08-09T04:59:53.560Z,4.90
2022-08-09T05:02:20.347Z,5.25
2022-08-09T05:04:48.599Z,5.05
2022-08-09T05:07:22.286Z,4.40
2022-08-09T05:09:50.400Z,4.95
2022-08-09T05:12:17.260Z,4.82
2022-08-09T05:14:44.042Z,4.38
2022-08-09T05:18:36.869Z,5.50
2022-08-09T05:20:00.040Z,4.75
2022-08-09T05:22:33.162Z,5.45
2022-08-09T05:25:02.497Z,5.40
2022-08-09T05:27:30.361Z,5.30
2022-08-09T05:29:58.056Z,4.65
2022-08-09T05:32:26.267Z,5.53
2022-08-09T05:34:57.149Z,5.05
2022-08-09T05:37:26.269Z,5.28
2022-08-09T05:39:53.515Z,5.47
2022-08-09T05:42:21.620Z,5.72
2022-08-09T05:45:01.962Z,5.53
2022-08-09T05:47:30.261Z,5.10
2022-08-09T05:50:23.401Z,4.43
2022-08-09T05:52:53.488Z,4.63
2022-08-09T05:55:21.654Z,4.20
2022-08-09T05:57:56.129Z,4.13
2022-08-09T06:00:25.935Z,3.13
2022-08-09T06:02:56.898Z,3.33
2022-08-09T06:05:49.936Z,3.45
2022-08-09T06:08:13.408Z,3.58
2022-08-09T06:10:46.156Z,3.45
2022-08-09T06:13:20.397Z,3.47
2022-08-09T06:15:51.539Z,3.67
2022-08-09T06:18:23.759Z,3.38
2022-08-09T06:20:57.919Z,3.67
2022-08-09T06:23:58.050Z,3.13
2022-08-09T06:26:20.123Z,3.17
2022-08-09T06:28:47.469Z,3.28
2022-08-09T06:31:14.291Z,2.80
2022-08-09T06:33:42.161Z,2.50
2022-08-09T06:36:15.788Z,2.45
2022-08-09T06:38:50.414Z,3.20
2022-08-09T06:41:18.905Z,2.40
2022-08-09T06:43:48.141Z,2.38
2022-08-09T06:46:39.981Z,2.28
2022-08-09T06:51:28.875Z,2.05
2022-08-09T06:54:00.652Z,2.00
2022-08-09T06:56:30.554Z,2.35
2022-08-09T07:00:56.360Z,1.52
2022-08-09T07:01:57.835Z,1.60
2022-08-09T07:04:30.620Z,1.60
2022-08-09T07:07:00.373Z,1.40
2022-08-09T07:09:54.552Z,1.63
2022-08-09T07:12:18.561Z,1.25
2022-08-09T07:14:51.180Z,1.80
2022-08-09T07:17:18.940Z,1.40
2022-08-09T07:19:48.105Z,1.15
2022-08-09T07:22:17.989Z,1.00
2022-08-09T07:24:49.306Z,1.10
2022-08-09T07:27:27.207Z,1.10
2022-08-09T07:30:02.281Z,1.23
2022-08-09T07:32:33.636Z,1.20
2022-08-09T07:35:02.709Z,1.20
2022-08-09T07:37:42.944Z,0.95
2022-08-09T07:40:16.957Z,1.15
2022-08-09T07:42:55.977Z,1.00
2022-08-09T07:45:37.573Z,0.95
2022-08-09T07:48:05.909Z,1.10
2022-08-09T07:50:36.359Z,0.90
2022-08-09T07:53:04.615Z,0.80
2022-08-09T07:55:41.240Z,1.02
2022-08-09T07:58:21.611Z,0.90
2022-08-09T08:00:56.103Z,0.80
2022-08-09T08:03:32.656Z,0.90
2022-08-09T08:05:59.469Z,0.73
2022-08-09T08:09:00.004Z,0.80
2022-08-09T08:12:11.273Z,0.65
2022-08-09T08:14:02.910Z,0.60
2022-08-09T08:16:31.887Z,0.93
2022-08-09T08:19:03.083Z,0.80
2022-08-09T08:21:31.348Z,1.05
2022-08-09T08:24:01.217Z,0.93
2022-08-09T08:26:47.410Z,0.50
2022-08-09T08:29:27.386Z,0.90
2022-08-09T08:32:03.152Z,0.70
2022-08-09T08:34:32.010Z,0.70
2022-08-09T08:37:01.556Z,0.63
2022-08-09T08:39:28.546Z,0.80
2022-08-09T08:41:58.958Z,0.60
2022-08-09T08:44:29.533Z,0.60
2022-08-09T08:46:59.620Z,0.80
2022-08-09T08:49:38.360Z,0.73
2022-08-09T08:52:24.442Z,0.73
2022-08-09T08:55:01.380Z,0.60
2022-08-09T08:57:35.429Z,0.80
2022-08-09T09:00:08.205Z,0.80
2022-08-09T09:02:52.593Z,0.70
2022-08-09T09:05:57.520Z,0.80
2022-08-09T09:08:29.951Z,0.60
2022-08-09T09:11:02.001Z,0.70
2022-08-09T09:13:41.766Z,0.70
2022-08-09T09:16:29.757Z,0.90
2022-08-09T09:19:37.688Z,0.60
2022-08-09T09:22:03.723Z,0.70
2022-08-09T09:24:34.825Z,0.80
2022-08-09T09:27:02.878Z,0.70
2022-08-09T09:30:05.358Z,0.90
2022-08-09T09:32:21.024Z,1.00
2022-08-09T09:35:07.691Z,1.00
2022-08-09T09:37:37.579Z,1.02
2022-08-09T09:40:09.363Z,1.30
2022-08-09T09:42:36.393Z,1.00
2022-08-09T09:45:08.341Z,0.95
2022-08-09T09:47:47.709Z,0.82
2022-08-09T09:50:42.043Z,1.08
2022-08-09T09:53:17.544Z,0.90
2022-08-09T09:55:57.677Z,1.23
2022-08-09T09:58:45.332Z,1.20
2022-08-09T10:01:36.734Z,1.35
2022-08-09T10:04:12.800Z,0.93
2022-08-09T10:06:47.079Z,1.27
2022-08-09T10:09:23.397Z,1.33
2022-08-09T10:12:11.779Z,1.05
2022-08-09T10:14:47.759Z,1.00
2022-08-09T10:17:50.829Z,0.90
2022-08-09T10:20:31.887Z,1.30
2022-08-09T10:23:17.134Z,1.25
2022-08-09T10:26:06.487Z,1.55
2022-08-09T10:28:34.383Z,1.10
2022-08-09T10:34:08.782Z,1.10
2022-08-09T10:36:38.493Z,1.35
2022-08-09T10:39:16.188Z,1.20
2022-08-09T10:41:47.928Z,1.10
2022-08-09T10:44:18.481Z,1.00
2022-08-09T10:48:13.364Z,1.00
2022-08-09T10:50:17.593Z,1.13
2022-08-09T10:53:10.972Z,1.20
2022-08-09T10:55:57.982Z,1.23
2022-08-09T10:58:30.907Z,2.08
2022-08-09T11:03:06.987Z,1.00
2022-08-09T11:04:28.274Z,0.80
2022-08-09T11:07:56.896Z,0.82
2022-08-09T11:10:16.709Z,0.70
2022-08-09T11:13:51.254Z,0.80
2022-08-09T11:16:35.156Z,1.00
2022-08-09T11:19:03.034Z,1.20
2022-08-09T11:22:10.165Z,0.95
2022-08-09T11:25:08.094Z,1.08
2022-08-09T11:28:02.820Z,1.15
2022-08-09T11:30:36.205Z,0.73
2022-08-09T11:33:06.009Z,1.20
2022-08-09T11:35:49.088Z,0.90
2022-08-09T11:38:18.878Z,1.33
2022-08-09T11:40:47.742Z,0.85
2022-08-09T11:43:39.263Z,1.02
2022-08-09T11:46:06.737Z,1.10
2022-08-09T11:48:46.125Z,1.65
2022-08-09T11:52:49.359Z,1.00
2022-08-09T11:54:14.030Z,0.70
2022-08-09T11:56:48.258Z,0.70
2022-08-09T11:59:30.708Z,0.90
2022-08-09T12:02:18.187Z,0.80
2022-08-09T12:04:58.102Z,0.80
2022-08-09T12:07:41.217Z,1.00
2022-08-09T12:10:14.377Z,1.00
2022-08-09T12:13:03.704Z,0.82
2022-08-09T12:15:49.122Z,0.90
2022-08-09T12:18:30.089Z,1.05
2022-08-09T12:21:03.211Z,0.93
2022-08-09T12:23:56.254Z,0.77
2022-08-09T12:26:19.501Z,0.80
2022-08-09T12:29:13.650Z,0.90
2022-08-09T12:32:02.199Z,0.82
2022-08-09T12:34:34.827Z,0.80
2022-08-09T12:37:21.393Z,0.80
2022-08-09T12:40:00.339Z,0.80
2022-08-09T12:42:28.243Z,0.60
2022-08-09T12:44:59.470Z,0.80
2022-08-09T12:47:27.987Z,1.00
2022-08-09T12:50:23.705Z,0.80
2022-08-09T12:53:08.065Z,0.68
2022-08-09T12:56:13.814Z,0.80
2022-08-09T12:58:28.270Z,0.85
2022-08-09T13:00:57.830Z,0.70
2022-08-09T13:03:52.602Z,0.70
2022-08-09T13:06:25.223Z,0.80
2022-08-09T13:09:07.627Z,0.95
2022-08-09T13:11:39.507Z,1.08
2022-08-09T13:17:01.039Z,0.70
2022-08-09T13:20:06.547Z,0.68
2022-08-09T13:22:37.084Z,0.90
2022-08-09T13:25:07.619Z,1.00
2022-08-09T13:27:40.063Z,0.77
2022-08-09T13:30:50.573Z,0.88
2022-08-09T13:33:06.679Z,0.77
2022-08-09T13:36:39.107Z,0.80
2022-08-09T13:38:54.224Z,0.90
2022-08-09T13:41:52.252Z,1.02
2022-08-09T13:43:59.225Z,0.85
2022-08-09T13:47:16.612Z,1.00
2022-08-09T13:49:18.172Z,0.98
2022-08-09T13:52:00.535Z,0.73
2022-08-09T13:54:30.374Z,1.10
2022-08-09T13:56:57.323Z,0.80
2022-08-09T13:59:25.903Z,0.93
2022-08-09T14:02:04.870Z,0.80
2022-08-09T14:04:33.412Z,1.00
2022-08-09T14:07:03.655Z,0.98
2022-08-09T14:09:31.674Z,0.70
2022-08-09T14:12:07.073Z,0.70
2022-08-09T14:14:44.030Z,0.60
2022-08-09T14:17:12.142Z,1.05
2022-08-09T14:19:40.876Z,1.10
2022-08-09T14:22:09.151Z,0.90
2022-08-09T14:24:35.962Z,0.95
2022-08-09T14:27:19.846Z,0.80
2022-08-09T14:30:35.287Z,0.85
2022-08-09T14:32:34.807Z,1.00
2022-08-09T14:35:07.635Z,0.90
2022-08-09T14:37:41.347Z,0.77
2022-08-09T14:41:00.731Z,0.80
2022-08-09T14:43:08.599Z,0.80
2022-08-09T14:46:54.414Z,0.80
2022-08-09T14:48:22.348Z,0.90
2022-08-09T14:50:55.122Z,0.90
2022-08-09T14:53:21.982Z,0.80
2022-08-09T14:55:50.626Z,0.80
2022-08-09T14:58:18.366Z,0.80
2022-08-09T15:00:48.338Z,0.70
2022-08-09T15:03:20.374Z,0.90
2022-08-09T15:05:51.278Z,0.90
2022-08-09T15:08:25.546Z,0.80
2022-08-09T15:11:01.372Z,0.77
2022-08-09T15:13:56.663Z,0.80
2022-08-09T15:16:19.805Z,0.63
2022-08-09T15:18:49.187Z,0.80
2022-08-09T15:21:54.979Z,0.70
2022-08-09T15:24:13.938Z,0.80
2022-08-09T15:26:46.765Z,0.90
2022-08-09T15:30:48.818Z,0.80
2022-08-09T15:32:01.385Z,0.73
2022-08-09T15:34:33.000Z,0.90
2022-08-09T15:37:04.276Z,0.80
2022-08-09T15:39:34.600Z,0.70
2022-08-09T15:42:11.060Z,0.60
2022-08-09T15:44:37.933Z,0.88
2022-08-09T15:47:05.907Z,0.90
2022-08-09T15:49:40.979Z,0.80
2022-08-09T15:52:27.692Z,0.80
2022-08-09T15:54:56.332Z,1.00
2022-08-09T15:57:35.853Z,0.70
2022-08-09T16:00:24.663Z,0.90
2022-08-09T16:02:54.638Z,0.68
2022-08-09T16:05:23.486Z,0.70
2022-08-09T16:07:51.183Z,0.80
2022-08-09T16:10:54.743Z,0.82
2022-08-09T16:13:19.008Z,0.88
2022-08-09T16:16:12.230Z,0.95
2022-08-09T16:18:45.328Z,0.90
2022-08-09T16:21:12.476Z,0.80
2022-08-09T16:23:54.910Z,0.70
2022-08-09T16:26:34.901Z,0.68
2022-08-09T16:29:10.687Z,1.05
2022-08-09T16:32:12.642Z,0.75
2022-08-09T16:34:28.946Z,1.02
2022-08-09T16:36:56.390Z,0.90
2022-08-09T16:39:25.756Z,0.88
2022-08-09T16:42:02.473Z,0.90
2022-08-09T16:44:31.785Z,0.90
2022-08-09T16:47:04.170Z,0.80
2022-08-09T16:50:29.162Z,0.70
2022-08-09T16:54:59.823Z,1.25
2022-08-09T16:58:08.088Z,1.10
2022-08-09T17:00:15.960Z,0.80
2022-08-09T17:02:46.361Z,1.00
2022-08-09T17:05:14.401Z,0.90
2022-08-09T17:08:45.245Z,0.70
2022-08-09T17:10:34.423Z,0.60
2022-08-09T17:13:06.247Z,0.70
2022-08-09T17:15:59.238Z,0.80
2022-08-09T17:18:26.941Z,0.70
2022-08-09T17:20:57.098Z,0.60
2022-08-09T17:24:21.363Z,0.73
2022-08-09T17:26:11.026Z,0.60
2022-08-09T17:28:40.777Z,0.80
2022-08-09T17:31:07.705Z,0.80
2022-08-09T17:33:37.622Z,0.63
2022-08-09T17:36:05.499Z,0.70
2022-08-09T17:38:39.474Z,0.80
2022-08-09T17:41:08.085Z,0.90
2022-08-09T17:43:37.451Z,0.70
2022-08-09T17:46:09.624Z,0.60
2022-08-09T17:48:51.909Z,0.70
2022-08-09T17:51:20.090Z,0.57
2022-08-09T17:53:52.115Z,0.80
2022-08-09T17:56:20.844Z,1.27
2022-08-09T17:58:47.958Z,0.60
2022-08-09T18:01:23.147Z,0.73
2022-08-09T18:03:51.370Z,0.90
2022-08-09T18:06:32.326Z,0.80
2022-08-09T18:09:03.154Z,0.70
2022-08-09T18:11:46.991Z,0.68
2022-08-09T18:14:19.943Z,0.77
2022-08-09T18:16:49.128Z,0.60
2022-08-09T18:20:56.206Z,0.70
2022-08-09T18:22:04.183Z,0.82
2022-08-09T18:24:31.237Z,0.63
2022-08-09T18:26:58.138Z,0.63
2022-08-09T18:30:41.445Z,0.70
2022-08-09T18:32:19.107Z,0.70
2022-08-09T18:34:46.079Z,0.70
2022-08-09T18:37:47.395Z,0.88
2022-08-09T18:40:02.322Z,0.80
2022-08-09T18:42:29.628Z,0.70
2022-08-09T18:44:57.064Z,0.63
2022-08-09T18:47:36.991Z,1.02
2022-08-09T18:50:06.097Z,0.80
2022-08-09T18:52:36.107Z,0.60
2022-08-09T18:55:03.178Z,0.80
2022-08-09T18:57:38.632Z,0.75
2022-08-09T19:00:20.421Z,0.93
2022-08-09T19:02:50.998Z,0.70
2022-08-09T19:05:41.446Z,0.80
2022-08-09T19:08:10.573Z,1.00
2022-08-09T19:10:41.096Z,0.80
2022-08-09T19:13:19.279Z,0.80
2022-08-09T19:15:49.929Z,0.82
2022-08-09T19:18:33.216Z,0.90
2022-08-09T19:21:02.563Z,0.90
2022-08-09T19:24:37.051Z,1.27
2022-08-09T19:28:48.839Z,0.90
2022-08-09T19:31:16.810Z,0.90
2022-08-09T19:33:45.135Z,1.10
2022-08-09T19:36:13.395Z,1.00
2022-08-09T19:38:40.635Z,1.10
2022-08-09T19:44:01.498Z,1.00
2022-08-09T19:51:54.921Z,1.38
2022-08-09T19:54:23.131Z,0.90
2022-08-09T19:56:52.055Z,1.10
2022-08-09T19:59:59.665Z,1.00
2022-08-09T20:02:18.325Z,0.90
2022-08-09T20:04:55.159Z,0.90
2022-08-09T20:07:22.779Z,1.33
2022-08-09T20:09:50.075Z,1.00
2022-08-09T20:12:30.041Z,0.90
2022-08-09T20:17:54.721Z,1.05
2022-08-09T20:20:24.632Z,1.00
2022-08-09T20:22:56.499Z,1.00
2022-08-09T20:25:23.661Z,0.80
2022-08-09T20:27:51.108Z,1.05
2022-08-09T20:30:21.694Z,1.00
2022-08-09T20:32:52.208Z,1.00
2022-08-09T20:35:19.657Z,0.93
2022-08-09T20:38:22.020Z,1.08
2022-08-09T20:40:35.419Z,1.10
2022-08-09T20:43:18.693Z,1.20
2022-08-09T20:45:57.745Z,1.25
2022-08-09T20:48:37.047Z,1.08
2022-08-09T20:51:05.268Z,1.00
2022-08-09T20:53:35.283Z,1.20
2022-08-09T20:56:06.290Z,0.98
2022-08-09T20:58:35.457Z,1.00
2022-08-09T21:01:33.327Z,0.98
2022-08-09T21:05:49.870Z,1.20
2022-08-09T21:06:42.753Z,1.00
2022-08-09T21:09:14.065Z,1.00
2022-08-09T21:14:31.300Z,1.00
2022-08-09T21:16:59.462Z,1.15
2022-08-09T21:20:14.550Z,1.10
2022-08-09T21:22:36.115Z,0.90
2022-08-09T21:25:20.817Z,1.00
2022-08-09T21:27:51.889Z,1.10
2022-08-09T21:30:22.492Z,1.10
2022-08-09T21:32:50.452Z,1.10
2022-08-09T21:35:17.455Z,1.20
2022-08-09T21:37:58.578Z,1.23
2022-08-09T21:40:30.628Z,1.10
2022-08-09T21:42:59.886Z,1.02
2022-08-09T21:45:28.070Z,1.20
2022-08-09T21:47:55.528Z,1.08
2022-08-09T21:50:33.834Z,1.05
2022-08-09T21:53:06.213Z,1.10
2022-08-09T21:55:34.640Z,1.20
2022-08-09T21:58:02.565Z,1.17
2022-08-09T22:00:31.735Z,1.20
2022-08-09T22:03:01.958Z,1.23
2022-08-09T22:05:37.720Z,1.00
2022-08-09T22:08:13.810Z,1.23
2022-08-09T22:11:49.453Z,1.27
2022-08-09T22:13:34.306Z,1.40
2022-08-09T22:16:03.717Z,1.30
2022-08-09T22:18:30.895Z,1.40
2022-08-09T22:23:27.219Z,1.42
2022-08-09T22:26:12.672Z,1.30
2022-08-09T22:28:54.279Z,1.42
2022-08-09T22:31:21.231Z,1.20
2022-08-09T22:33:55.678Z,1.20
2022-08-09T22:36:23.613Z,1.40
2022-08-09T22:38:50.659Z,1.42
2022-08-09T22:41:19.477Z,1.35
2022-08-09T22:44:03.365Z,1.48
2022-08-09T22:48:18.482Z,1.40
2022-08-09T22:49:18.966Z,1.23
2022-08-09T22:51:53.542Z,1.20
2022-08-09T22:54:26.998Z,1.73
2022-08-09T22:56:57.051Z,1.73
2022-08-09T22:59:57.215Z,1.60
2022-08-09T23:02:15.762Z,1.60
2022-08-09T23:04:53.309Z,1.65
2022-08-09T23:08:27.792Z,1.50
2022-08-09T23:10:43.693Z,1.58
2022-08-09T23:13:12.850Z,1.70
2022-08-09T23:15:39.968Z,1.70
2022-08-09T23:18:06.988Z,1.63
2022-08-09T23:20:33.834Z,1.70
2022-08-09T23:23:00.676Z,1.50
2022-08-09T23:25:27.758Z,1.70
2022-08-09T23:27:57.439Z,2.03
2022-08-09T23:30:51.624Z,1.70
2022-08-09T23:33:19.470Z,1.90
2022-08-09T23:36:06.954Z,1.95
2022-08-09T23:38:33.082Z,1.70
2022-08-09T23:40:59.900Z,1.90
2022-08-09T23:43:28.129Z,1.88
2022-08-09T23:45:54.966Z,2.20
2022-08-09T23:48:21.819Z,1.77
2022-08-09T23:50:48.766Z,2.03
2022-08-09T23:53:15.679Z,2.00
2022-08-09T23:55:49.507Z,1.65
2022-08-09T23:58:26.170Z,3.15
